Latest Weather Observations for Coonawarra

IDS60801

Issued at 1:35 pm CST Monday 22 September 2014 (issued every 30 minutes, with the page automatically refreshed every 10 minutes)

About weather observations | Map of weather stations | Latest weather observations for SA | Other Formats
Station Details ID: 026091 Name: COONAWARRA Lat: -37.29 Lon: 140.83 Height: 57.0 m
Data from the previous 72 hours. | See also: Recent months at Coonawarra
Date/Time
CST
Temp
°C
App
Temp
°C
Dew
Point
Rel
Hum
%
Delta-T
°C
Wind Press
QNH
hPa
Press
MSL
hPa
Rain
since 9 am
mm
Dir
 
Spd
km/h
Gust
km/h
Spd
kts
Gust
kts
22/01:30pm 22.8 17.3 0.3 22 10.2 N 19 28 10 15 1024.7 1024.7 0.0
22/01:00pm 22.2 16.8 1.4 25 9.6 N 19 32 10 17 1024.9 1024.9 0.0
22/12:30pm 21.7 16.7 1.5 26 9.3 N 17 26 9 14 1025.3 1025.3 0.0
22/12:00pm 20.9 15.6 2.1 28 8.7 N 19 28 10 15 1025.9 1025.9 0.0
22/11:30am 20.6 15.0 1.5 28 8.7 N 20 28 11 15 1026.4 1026.4 0.0
22/11:00am 19.6 14.7 4.3 36 7.4 N 19 28 10 15 1026.8 1026.8 0.0
22/10:30am 18.8 13.9 4.9 40 6.7 N 20 28 11 15 1027.3 1027.3 0.0
22/10:00am 17.8 12.8 4.5 41 6.3 N 20 28 11 15 1027.4 1027.4 0.0
22/09:30am 16.6 11.7 5.0 46 5.5 N 20 28 11 15 1027.7 1027.7 0.0
22/09:00am 15.5 9.8 4.8 49 5.0 N 24 32 13 17 1027.7 1027.7 0.0
22/08:30am 14.2 9.9 5.2 54 4.2 NNE 17 24 9 13 1027.7 1027.7 0.0
22/08:00am 12.5 8.6 5.4 62 3.3 NNE 15 20 8 11 1027.8 1027.8 0.0
22/07:30am 10.9 7.5 5.9 71 2.3 NE 13 17 7 9 1027.8 1027.8 0.0
22/07:00am 8.7 5.5 5.3 79 1.5 NNE 11 15 6 8 1027.7 1027.7 0.0
22/06:47am 6.4 3.1 4.8 89 0.7 NNE 11 15 6 8 1027.6 1027.6 0.0
22/06:30am 1.4 -2.2 0.6 94 0.3 NE 9 11 5 6 1027.6 1027.6 0.0
22/06:00am 0.5 -1.5 -0.2 95 0.2 CALM 0 0 0 0 1027.5 1027.5 0.0
22/05:30am 0.4 - - - - CALM 0 0 0 0 1027.4 1027.4 0.0
22/05:00am 0.5 - - - - CALM 0 0 0 0 1027.2 1027.2 0.0
22/04:30am 0.9 -1.2 -0.5 90 0.5 CALM 0 0 0 0 1027.1 1027.1 0.0
22/04:00am 0.6 - - - - CALM 0 0 0 0 1027.0 1027.0 0.0
22/03:30am 0.9 -1.1 0.1 94 0.3 CALM 0 0 0 0 1027.0 1027.0 0.0
22/03:00am 1.5 -0.4 0.7 94 0.3 CALM 0 0 0 0 1027.0 1027.0 0.0
22/02:30am 2.3 0.5 1.2 92 0.4 CALM 0 0 0 0 1027.2 1027.2 0.0
22/02:00am 2.3 0.5 1.5 94 0.3 CALM 0 0 0 0 1027.7 1027.7 0.0
22/01:30am 2.4 -0.1 1.6 94 0.3 ESE 4 6 2 3 1027.8 1027.8 0.0
22/01:00am 3.2 0.3 2.4 94 0.3 ESE 7 9 4 5 1028.0 1028.0 0.0
22/12:30am 3.2 0.3 2.4 94 0.3 ESE 7 9 4 5 1028.1 1028.1 0.0
22/12:00am 4.0 1.2 3.0 93 0.4 ESE 7 9 4 5 1028.2 1028.2 0.0
 
Date/Time
CST
Temp
°C
App
Temp
°C
Dew
Point
Rel
Hum
%
Delta-T
°C
Wind Press
QNH
hPa
Press
MSL
hPa
Rain
since 9 am
mm
Dir
 
Spd
km/h
Gust
km/h
Spd
kts
Gust
kts
21/11:30pm 4.6 1.8 3.4 92 0.5 E 7 7 4 4 1028.2 1028.2 0.0
21/11:00pm 4.7 3.1 2.5 86 0.9 CALM 0 0 0 0 1028.4 1028.4 0.0
21/10:30pm 5.3 3.9 3.4 87 0.8 CALM 0 0 0 0 1028.6 1028.6 0.0
21/10:00pm 5.9 4.4 3.2 83 1.1 CALM 0 0 0 0 1028.9 1028.9 0.0
21/09:30pm 6.9 5.7 4.6 85 1.0 CALM 0 0 0 0 1029.0 1029.0 0.0
21/09:00pm 8.1 6.9 4.7 79 1.5 CALM 0 0 0 0 1029.2 1029.2 0.0
21/08:30pm 8.4 6.4 4.5 76 1.7 WSW 4 9 2 5 1029.4 1029.4 0.0
21/08:00pm 10.3 8.1 5.5 72 2.2 S 6 7 3 4 1029.3 1029.3 0.0
21/07:30pm 11.3 8.9 5.4 67 2.7 S 7 9 4 5 1029.1 1029.1 0.0
21/07:00pm 13.3 10.9 5.1 57 3.8 SSE 7 9 4 5 1029.0 1029.0 0.0
21/06:30pm 13.9 11.7 6.1 59 3.7 S 7 9 4 5 1028.8 1028.8 0.0
21/06:00pm 15.2 12.9 5.5 52 4.6 SW 7 9 4 5 1028.7 1028.7 0.0
21/05:30pm 16.8 14.0 3.2 40 6.2 WSW 7 11 4 6 1028.6 1028.6 0.0
21/05:00pm 17.4 13.8 3.0 38 6.6 WSW 11 13 6 7 1028.4 1028.4 0.0
21/04:30pm 17.7 13.9 1.5 33 7.2 WSW 11 19 6 10 1028.4 1028.4 0.0
21/04:00pm 17.8 14.7 1.3 33 7.4 S 7 11 4 6 1028.4 1028.4 0.0
21/03:30pm 17.9 14.6 2.2 35 7.1 SW 9 13 5 7 1028.6 1028.6 0.0
21/03:00pm 17.7 14.0 0.1 30 7.6 SSW 9 15 5 8 1028.8 1028.8 0.0
21/02:30pm 17.0 13.2 2.0 36 6.7 S 11 17 6 9 1029.2 1029.2 0.0
21/02:00pm 16.9 13.2 2.1 37 6.7 SSW 11 19 6 10 1029.7 1029.7 0.0
21/01:30pm 16.6 13.3 2.6 39 6.3 SW 9 19 5 10 1030.2 1030.2 0.0
21/01:00pm 16.3 12.3 3.1 41 6.0 S 13 20 7 11 1030.5 1030.5 0.0
21/12:30pm 16.1 12.1 3.1 41 5.9 SE 13 17 7 9 1030.8 1030.8 0.0
21/12:00pm 15.5 12.5 3.9 46 5.3 SSW 9 19 5 10 1031.2 1031.2 0.0
21/11:30am 15.1 11.5 3.1 44 5.4 S 11 17 6 9 1031.7 1031.8 0.0
21/11:00am 15.0 11.0 2.9 44 5.5 SSW 13 19 7 10 1031.9 1032.0 0.0
21/10:30am 14.5 11.6 2.8 45 5.2 S 7 17 4 9 1032.2 1032.3 0.0
21/10:00am 14.1 11.5 3.4 48 4.8 S 6 15 3 8 1032.4 1032.5 0.0
21/09:30am 13.6 11.8 5.2 57 3.9 SE 4 7 2 4 1032.5 1032.6 0.0
21/09:00am 12.8 11.5 6.0 63 3.2 NNE 2 7 1 4 1032.4 1032.5 0.0
21/08:30am 10.1 7.8 5.7 74 2.0 NE 7 11 4 6 1032.1 1032.2 0.0
21/08:00am 7.8 6.7 5.1 83 1.2 CALM 0 0 0 0 1032.0 1032.1 0.0
21/07:30am 5.0 2.3 3.8 92 0.5 S 7 9 4 5 1031.8 1031.9 0.0
21/07:00am 3.0 1.3 2.0 93 0.4 CALM 0 6 0 3 1031.6 1031.7 0.0
21/06:30am 1.2 -1.8 0.7 96 0.2 SSE 6 7 3 4 1031.2 1031.2 0.0
21/06:00am 1.6 -1.9 1.1 96 0.2 S 9 11 5 6 1031.0 1031.0 0.0
21/05:30am 0.6 -1.4 0.0 96 0.2 CALM 0 4 0 2 1030.6 1030.6 0.0
21/05:00am 0.6 -2.7 -0.2 94 0.3 SE 7 7 4 4 1030.4 1030.4 0.0
21/04:30am 0.9 -2.4 0.1 94 0.3 SSE 7 9 4 5 1030.2 1030.2 0.0
21/04:00am 2.4 -0.7 1.3 92 0.4 SSE 7 7 4 4 1030.1 1030.1 0.0
21/03:30am 2.8 -0.2 1.8 93 0.4 SSE 7 9 4 5 1030.1 1030.1 0.0
21/03:00am 2.9 -0.2 1.6 91 0.5 SSE 7 9 4 5 1030.1 1030.1 0.0
21/02:30am 3.2 0.2 1.9 91 0.5 SE 7 9 4 5 1030.2 1030.2 0.0
21/02:00am 3.4 0.6 1.9 90 0.6 SE 6 7 3 4 1030.1 1030.1 0.0
21/01:30am 4.3 1.4 2.6 89 0.7 SE 7 9 4 5 1030.4 1030.4 0.0
21/01:00am 4.6 1.4 2.9 89 0.7 SE 9 11 5 6 1030.6 1030.6 0.0
21/12:30am 3.9 0.9 2.1 88 0.7 SSE 7 7 4 4 1030.6 1030.6 0.0
21/12:00am 5.3 2.5 3.1 86 0.9 SE 7 7 4 4 1030.5 1030.5 0.0
 
Date/Time
CST
Temp
°C
App
Temp
°C
Dew
Point
Rel
Hum
%
Delta-T
°C
Wind Press
QNH
hPa
Press
MSL
hPa
Rain
since 9 am
mm
Dir
 
Spd
km/h
Gust
km/h
Spd
kts
Gust
kts
20/11:30pm 5.6 2.8 2.9 83 1.1 SE 7 7 4 4 1030.6 1030.6 0.0
20/11:00pm 6.9 3.8 3.6 79 1.4 SE 9 11 5 6 1030.6 1030.6 0.0
20/10:30pm 7.4 4.0 3.9 78 1.5 ESE 11 13 6 7 1030.6 1030.6 0.0
20/10:00pm 7.9 4.5 4.2 77 1.6 SE 11 15 6 8 1030.5 1030.5 0.0
20/09:30pm 8.0 4.7 4.3 77 1.6 ESE 11 13 6 7 1030.7 1030.7 0.0
20/09:00pm 8.9 5.6 4.6 74 1.9 ESE 11 13 6 7 1030.6 1030.6 0.0
20/08:30pm 9.7 6.4 4.8 71 2.2 SE 11 15 6 8 1030.4 1030.4 0.0
20/08:00pm 10.1 6.5 5.0 70 2.3 SSE 13 17 7 9 1030.5 1030.5 0.0
20/07:30pm 10.5 7.4 5.4 70 2.3 S 11 15 6 8 1030.3 1030.3 0.0
20/07:00pm 11.4 8.0 5.8 68 2.6 S 13 17 7 9 1029.9 1029.9 0.0
20/06:30pm 12.0 7.8 5.8 66 2.9 S 17 20 9 11 1029.5 1029.5 0.0
20/06:00pm 13.1 8.4 5.3 59 3.6 S 19 26 10 14 1029.1 1029.1 0.0
20/05:30pm 14.1 9.8 5.3 55 4.1 S 17 20 9 11 1028.7 1028.7 0.0
20/05:00pm 15.9 10.7 2.5 40 6.0 SSE 19 26 10 14 1028.3 1028.3 0.0
20/04:30pm 16.7 11.8 2.2 37 6.5 SSW 17 24 9 13 1028.1 1028.1 0.0
20/04:00pm 17.1 12.0 0.8 33 7.2 SSW 17 24 9 13 1027.7 1027.7 0.0
20/03:30pm 17.3 12.0 1.8 35 6.9 SSW 19 30 10 16 1027.5 1027.5 0.0
20/03:00pm 17.1 11.9 2.5 37 6.6 SSW 19 28 10 15 1027.6 1027.6 0.0
20/02:30pm 16.8 12.0 2.6 38 6.4 SSW 17 24 9 13 1027.6 1027.6 0.0
20/02:00pm 17.2 13.0 3.6 40 6.3 SW 15 22 8 12 1027.8 1027.8 0.0
20/01:30pm 17.1 12.5 1.5 35 6.9 SW 15 20 8 11 1027.8 1027.8 0.0
20/01:00pm 16.7 13.6 3.4 41 6.1 SW 9 15 5 8 1027.9 1027.9 0.0
20/12:30pm 16.0 11.4 1.3 37 6.4 SSE 15 20 8 11 1028.0 1028.0 0.0
20/12:00pm 15.8 12.2 2.9 42 5.8 SSW 11 17 6 9 1028.2 1028.2 0.0
20/11:30am 15.6 12.0 3.2 43 5.6 S 11 20 6 11 1028.4 1028.4 0.0
20/11:00am 15.7 12.6 3.4 43 5.6 S 9 15 5 8 1028.6 1028.6 0.0
20/10:30am 14.5 11.2 2.5 44 5.3 SE 9 17 5 9 1028.8 1028.8 0.0
20/10:00am 14.2 10.6 3.0 47 5.0 ESE 11 19 6 10 1029.0 1029.0 0.0
20/09:30am 13.5 10.3 5.3 57 3.8 E 11 19 6 10 1029.3 1029.3 0.0
20/09:00am 12.5 9.6 6.4 66 2.9 E 11 15 6 8 1029.5 1029.5 0.0
20/08:30am 10.6 8.6 7.0 78 1.7 ESE 7 9 4 5 1029.5 1029.5 0.0
20/08:00am 8.1 5.9 6.3 88 0.8 ESE 7 9 4 5 1029.2 1029.2 0.0
20/07:30am 5.4 4.3 4.9 97 0.2 CALM 0 0 0 0 1028.9 1028.9 0.0
20/07:00am 2.3 -0.5 1.8 96 0.2 SSE 6 7 3 4 1028.5 1028.5 0.0
20/06:30am -0.6 - - - - SE 6 9 3 5 1028.0 1028.0 0.0
20/06:00am -0.7 - - - - CALM 0 0 0 0 1027.7 1027.7 0.0
20/05:30am -0.1 - - - - CALM 0 0 0 0 1027.4 1027.4 0.0
20/05:00am 0.2 - 0.3 - - CALM 0 0 0 0 1027.1 1027.1 0.0
20/04:30am 1.4 -1.6 1.1 98 0.1 SE 6 7 3 4 1026.6 1026.6 0.0
20/04:00am 1.9 -1.3 0.8 92 0.4 S 7 9 4 5 1026.5 1026.5 0.0
20/03:30am 0.6 -2.7 0.0 96 0.2 S 7 9 4 5 1026.4 1026.4 0.0
20/03:00am 1.3 -1.7 1.0 98 0.1 ESE 6 6 3 3 1026.2 1026.2 0.0
20/02:30am 1.8 -1.2 1.0 94 0.3 SE 6 9 3 5 1026.1 1026.1 0.0
20/02:00am 1.7 -0.2 0.6 92 0.4 CALM 0 0 0 0 1026.1 1026.1 0.0
20/01:30am 1.7 -1.2 1.4 98 0.1 ESE 6 7 3 4 1026.1 1026.1 0.0
20/01:00am 2.7 -0.3 1.9 94 0.3 SE 7 9 4 5 1026.3 1026.3 0.0
20/12:30am 2.6 0.1 1.8 94 0.3 SSE 4 6 2 3 1026.5 1026.5 0.0
20/12:00am 3.3 0.5 2.0 91 0.5 SSE 6 7 3 4 1026.5 1026.5 0.0
 
Date/Time
CST
Temp
°C
App
Temp
°C
Dew
Point
Rel
Hum
%
Delta-T
°C
Wind Press
QNH
hPa
Press
MSL
hPa
Rain
since 9 am
mm
Dir
 
Spd
km/h
Gust
km/h
Spd
kts
Gust
kts
19/11:30pm 4.0 1.0 2.2 88 0.7 SSE 7 9 4 5 1026.4 1026.4 0.0
19/11:00pm 4.7 1.8 2.7 87 0.8 SSE 7 7 4 4 1026.5 1026.5 0.0
19/10:30pm 4.8 2.1 2.8 87 0.8 SSE 6 7 3 4 1026.7 1026.7 0.0
19/10:00pm 6.7 4.0 3.9 82 1.2 SSE 7 9 4 5 1026.7 1026.7 0.0
19/09:30pm 7.7 4.7 4.2 78 1.5 SE 9 11 5 6 1026.7 1026.7 0.0
19/09:00pm 7.9 4.5 4.2 77 1.6 ESE 11 15 6 8 1026.7 1026.7 0.0
19/08:30pm 8.7 5.4 4.6 75 1.8 SE 11 15 6 8 1026.8 1026.8 0.0
19/08:00pm 9.0 5.7 4.7 74 1.9 SSE 11 15 6 8 1026.7 1026.7 0.0
19/07:30pm 9.4 6.6 5.2 75 1.9 SSE 9 11 5 6 1026.6 1026.6 0.0
19/07:00pm 9.7 6.9 5.3 74 2.0 S 9 13 5 7 1026.4 1026.4 0.0
19/06:30pm 10.5 7.3 5.2 70 2.4 S 11 13 6 7 1026.2 1026.2 0.0
19/06:00pm 12.2 8.7 5.5 63 3.1 S 13 15 7 8 1025.9 1025.9 0.0
19/05:30pm 13.2 9.3 5.2 58 3.7 S 15 20 8 11 1025.7 1025.7 0.0
19/05:00pm 14.3 10.2 4.3 51 4.6 SSW 15 20 8 11 1025.4 1025.4 0.0
19/04:30pm 15.3 10.6 3.4 45 5.4 S 17 22 9 12 1025.2 1025.2 0.0
19/04:00pm 15.2 10.1 3.3 45 5.4 S 19 26 10 14 1025.0 1025.0 0.0
19/03:30pm 15.7 11.0 0.9 36 6.4 SW 15 20 8 11 1025.0 1025.0 0.0
19/03:00pm 14.6 10.9 2.4 43 5.4 WSW 11 13 6 7 1025.0 1025.0 0.0
19/02:30pm 14.4 9.9 2.4 44 5.3 WSW 15 20 8 11 1025.2 1025.2 0.0
19/02:00pm 16.0 12.0 3.0 41 5.9 W 13 19 7 10 1025.2 1025.2 0.0

Other Formats:

Comma delimited format used in spreadsheet applications
http://www.bom.gov.au/fwo/IDS60801/IDS60801.94817.axf

JavaScript Object Notation format (JSON) in row-major order
http://www.bom.gov.au/fwo/IDS60801/IDS60801.94817.json